sensor_id;sensor_type;location;lat;lon;timestamp;P1;durP1;ratioP1;P2;durP2;ratioP2
32748;SDS011;19119;52.474;13.710;2023-02-03T00:00:36;8.65;;;2.92;;
32748;SDS011;19119;52.474;13.710;2023-02-03T00:03:02;5.60;;;3.15;;
32748;SDS011;19119;52.474;13.710;2023-02-03T00:05:27;7.25;;;3.00;;
32748;SDS011;19119;52.474;13.710;2023-02-03T00:07:54;8.35;;;3.13;;
32748;SDS011;19119;52.474;13.710;2023-02-03T00:10:20;6.75;;;2.72;;
32748;SDS011;19119;52.474;13.710;2023-02-03T00:12:49;7.10;;;2.60;;
32748;SDS011;19119;52.474;13.710;2023-02-03T00:15:20;6.90;;;2.55;;
32748;SDS011;19119;52.474;13.710;2023-02-03T00:17:47;4.78;;;2.28;;
32748;SDS011;19119;52.474;13.710;2023-02-03T00:20:12;4.32;;;2.80;;
32748;SDS011;19119;52.474;13.710;2023-02-03T00:22:39;7.63;;;2.60;;
32748;SDS011;19119;52.474;13.710;2023-02-03T00:25:04;7.95;;;2.60;;
32748;SDS011;19119;52.474;13.710;2023-02-03T00:27:30;3.20;;;2.53;;
32748;SDS011;19119;52.474;13.710;2023-02-03T00:29:56;4.22;;;2.47;;
32748;SDS011;19119;52.474;13.710;2023-02-03T00:32:22;4.10;;;2.33;;
32748;SDS011;19119;52.474;13.710;2023-02-03T00:34:47;4.03;;;2.75;;
32748;SDS011;19119;52.474;13.710;2023-02-03T00:37:13;5.47;;;2.88;;
32748;SDS011;19119;52.474;13.710;2023-02-03T00:39:38;5.85;;;2.95;;
32748;SDS011;19119;52.474;13.710;2023-02-03T00:42:04;6.32;;;2.40;;
32748;SDS011;19119;52.474;13.710;2023-02-03T00:44:30;6.22;;;2.88;;
32748;SDS011;19119;52.474;13.710;2023-02-03T00:46:56;10.40;;;2.90;;
32748;SDS011;19119;52.474;13.710;2023-02-03T00:49:22;10.48;;;3.20;;
32748;SDS011;19119;52.474;13.710;2023-02-03T00:51:47;6.70;;;2.50;;
32748;SDS011;19119;52.474;13.710;2023-02-03T00:54:13;5.82;;;2.72;;
32748;SDS011;19119;52.474;13.710;2023-02-03T00:56:38;6.70;;;3.53;;
32748;SDS011;19119;52.474;13.710;2023-02-03T00:59:04;11.30;;;2.55;;
32748;SDS011;19119;52.474;13.710;2023-02-03T01:01:30;5.95;;;3.25;;
32748;SDS011;19119;52.474;13.710;2023-02-03T01:03:56;9.52;;;3.28;;
32748;SDS011;19119;52.474;13.710;2023-02-03T01:06:22;5.28;;;3.00;;
32748;SDS011;19119;52.474;13.710;2023-02-03T01:08:48;5.13;;;2.55;;
32748;SDS011;19119;52.474;13.710;2023-02-03T01:11:15;8.05;;;2.80;;
32748;SDS011;19119;52.474;13.710;2023-02-03T01:13:45;10.45;;;3.30;;
32748;SDS011;19119;52.474;13.710;2023-02-03T01:16:11;8.18;;;3.55;;
32748;SDS011;19119;52.474;13.710;2023-02-03T01:18:38;6.10;;;2.70;;
32748;SDS011;19119;52.474;13.710;2023-02-03T01:21:05;6.90;;;2.80;;
32748;SDS011;19119;52.474;13.710;2023-02-03T01:23:42;5.60;;;3.20;;
32748;SDS011;19119;52.474;13.710;2023-02-03T01:26:09;5.00;;;2.92;;
32748;SDS011;19119;52.474;13.710;2023-02-03T01:28:36;7.82;;;3.40;;
32748;SDS011;19119;52.474;13.710;2023-02-03T01:31:16;4.93;;;2.97;;
32748;SDS011;19119;52.474;13.710;2023-02-03T01:33:43;4.53;;;2.72;;
32748;SDS011;19119;52.474;13.710;2023-02-03T01:36:12;7.15;;;2.88;;
32748;SDS011;19119;52.474;13.710;2023-02-03T01:38:38;6.53;;;2.90;;
32748;SDS011;19119;52.474;13.710;2023-02-03T01:41:05;6.43;;;2.63;;
32748;SDS011;19119;52.474;13.710;2023-02-03T01:43:33;7.47;;;3.00;;
32748;SDS011;19119;52.474;13.710;2023-02-03T01:46:03;5.82;;;2.63;;
32748;SDS011;19119;52.474;13.710;2023-02-03T01:48:50;4.28;;;2.28;;
32748;SDS011;19119;52.474;13.710;2023-02-03T01:51:17;7.32;;;2.63;;
32748;SDS011;19119;52.474;13.710;2023-02-03T01:53:44;6.47;;;2.38;;
32748;SDS011;19119;52.474;13.710;2023-02-03T01:56:09;7.55;;;2.67;;
32748;SDS011;19119;52.474;13.710;2023-02-03T01:58:37;7.82;;;2.63;;
32748;SDS011;19119;52.474;13.710;2023-02-03T02:01:05;6.45;;;2.40;;
32748;SDS011;19119;52.474;13.710;2023-02-03T02:03:35;3.90;;;2.33;;
32748;SDS011;19119;52.474;13.710;2023-02-03T02:06:05;4.82;;;2.70;;
32748;SDS011;19119;52.474;13.710;2023-02-03T02:08:33;6.43;;;3.38;;
32748;SDS011;19119;52.474;13.710;2023-02-03T02:11:00;3.90;;;2.90;;
32748;SDS011;19119;52.474;13.710;2023-02-03T02:13:27;4.55;;;2.70;;
32748;SDS011;19119;52.474;13.710;2023-02-03T02:19:05;7.40;;;3.08;;
32748;SDS011;19119;52.474;13.710;2023-02-03T02:21:47;11.77;;;3.72;;
32748;SDS011;19119;52.474;13.710;2023-02-03T02:24:31;5.18;;;2.70;;
32748;SDS011;19119;52.474;13.710;2023-02-03T02:30:11;5.32;;;2.47;;
32748;SDS011;19119;52.474;13.710;2023-02-03T02:35:31;5.88;;;2.35;;
32748;SDS011;19119;52.474;13.710;2023-02-03T02:41:15;4.40;;;2.47;;
32748;SDS011;19119;52.474;13.710;2023-02-03T02:44:12;6.30;;;2.25;;
32748;SDS011;19119;52.474;13.710;2023-02-03T02:46:53;3.78;;;2.42;;
32748;SDS011;19119;52.474;13.710;2023-02-03T02:49:42;4.40;;;2.33;;
32748;SDS011;19119;52.474;13.710;2023-02-03T02:52:31;4.05;;;2.28;;
32748;SDS011;19119;52.474;13.710;2023-02-03T02:55:02;6.25;;;2.60;;
32748;SDS011;19119;52.474;13.710;2023-02-03T02:57:34;5.53;;;2.75;;
32748;SDS011;19119;52.474;13.710;2023-02-03T03:00:03;4.40;;;1.90;;
32748;SDS011;19119;52.474;13.710;2023-02-03T03:02:31;2.72;;;2.25;;
32748;SDS011;19119;52.474;13.710;2023-02-03T03:04:58;3.60;;;2.20;;
32748;SDS011;19119;52.474;13.710;2023-02-03T03:07:25;3.50;;;2.63;;
32748;SDS011;19119;52.474;13.710;2023-02-03T03:09:54;3.25;;;2.05;;
32748;SDS011;19119;52.474;13.710;2023-02-03T03:12:28;2.40;;;1.52;;
32748;SDS011;19119;52.474;13.710;2023-02-03T03:15:05;4.47;;;1.80;;
32748;SDS011;19119;52.474;13.710;2023-02-03T03:17:39;2.63;;;1.98;;
32748;SDS011;19119;52.474;13.710;2023-02-03T03:20:08;3.35;;;1.90;;
32748;SDS011;19119;52.474;13.710;2023-02-03T03:22:41;2.38;;;1.77;;
32748;SDS011;19119;52.474;13.710;2023-02-03T03:25:13;1.90;;;1.55;;
32748;SDS011;19119;52.474;13.710;2023-02-03T03:27:43;2.55;;;1.40;;
32748;SDS011;19119;52.474;13.710;2023-02-03T03:30:15;2.85;;;1.80;;
32748;SDS011;19119;52.474;13.710;2023-02-03T03:32:44;1.63;;;1.23;;
32748;SDS011;19119;52.474;13.710;2023-02-03T03:35:10;2.63;;;1.40;;
32748;SDS011;19119;52.474;13.710;2023-02-03T03:40:21;4.20;;;1.90;;
32748;SDS011;19119;52.474;13.710;2023-02-03T03:43:18;2.83;;;1.95;;
32748;SDS011;19119;52.474;13.710;2023-02-03T03:45:47;3.60;;;1.98;;
32748;SDS011;19119;52.474;13.710;2023-02-03T03:48:25;3.38;;;2.10;;
32748;SDS011;19119;52.474;13.710;2023-02-03T03:50:56;3.05;;;1.80;;
32748;SDS011;19119;52.474;13.710;2023-02-03T03:53:28;2.83;;;2.17;;
32748;SDS011;19119;52.474;13.710;2023-02-03T03:55:56;3.92;;;2.08;;
32748;SDS011;19119;52.474;13.710;2023-02-03T03:58:25;3.42;;;2.10;;
32748;SDS011;19119;52.474;13.710;2023-02-03T04:00:55;3.63;;;2.00;;
32748;SDS011;19119;52.474;13.710;2023-02-03T04:03:26;3.17;;;1.90;;
32748;SDS011;19119;52.474;13.710;2023-02-03T04:05:56;3.75;;;1.85;;
32748;SDS011;19119;52.474;13.710;2023-02-03T04:08:22;3.33;;;1.90;;
32748;SDS011;19119;52.474;13.710;2023-02-03T04:10:47;3.50;;;2.03;;
32748;SDS011;19119;52.474;13.710;2023-02-03T04:13:13;3.50;;;1.98;;
32748;SDS011;19119;52.474;13.710;2023-02-03T04:15:40;2.47;;;1.65;;
32748;SDS011;19119;52.474;13.710;2023-02-03T04:18:06;2.38;;;1.67;;
32748;SDS011;19119;52.474;13.710;2023-02-03T04:20:32;2.47;;;1.67;;
32748;SDS011;19119;52.474;13.710;2023-02-03T04:22:57;2.35;;;1.90;;
32748;SDS011;19119;52.474;13.710;2023-02-03T04:25:24;3.05;;;1.80;;
32748;SDS011;19119;52.474;13.710;2023-02-03T04:27:50;2.25;;;1.73;;
32748;SDS011;19119;52.474;13.710;2023-02-03T04:30:15;2.50;;;1.73;;
32748;SDS011;19119;52.474;13.710;2023-02-03T04:32:42;2.50;;;1.70;;
32748;SDS011;19119;52.474;13.710;2023-02-03T04:35:08;2.42;;;1.58;;
32748;SDS011;19119;52.474;13.710;2023-02-03T04:37:34;2.97;;;1.95;;
32748;SDS011;19119;52.474;13.710;2023-02-03T04:40:00;2.60;;;1.92;;
32748;SDS011;19119;52.474;13.710;2023-02-03T04:42:25;2.30;;;1.80;;
32748;SDS011;19119;52.474;13.710;2023-02-03T04:44:51;1.67;;;1.25;;
32748;SDS011;19119;52.474;13.710;2023-02-03T04:47:17;1.63;;;1.13;;
32748;SDS011;19119;52.474;13.710;2023-02-03T04:49:43;1.85;;;1.58;;
32748;SDS011;19119;52.474;13.710;2023-02-03T04:52:13;2.28;;;1.77;;
32748;SDS011;19119;52.474;13.710;2023-02-03T04:54:39;2.33;;;1.60;;
32748;SDS011;19119;52.474;13.710;2023-02-03T04:57:04;2.40;;;1.73;;
32748;SDS011;19119;52.474;13.710;2023-02-03T04:59:30;3.20;;;1.70;;
32748;SDS011;19119;52.474;13.710;2023-02-03T05:02:10;3.53;;;2.20;;
32748;SDS011;19119;52.474;13.710;2023-02-03T05:04:36;2.95;;;1.90;;
32748;SDS011;19119;52.474;13.710;2023-02-03T05:07:01;2.40;;;1.67;;
32748;SDS011;19119;52.474;13.710;2023-02-03T05:09:27;3.35;;;1.88;;
32748;SDS011;19119;52.474;13.710;2023-02-03T05:11:53;3.10;;;2.05;;
32748;SDS011;19119;52.474;13.710;2023-02-03T05:14:18;3.25;;;2.22;;
32748;SDS011;19119;52.474;13.710;2023-02-03T05:16:45;4.97;;;2.45;;
32748;SDS011;19119;52.474;13.710;2023-02-03T05:19:10;4.18;;;2.67;;
32748;SDS011;19119;52.474;13.710;2023-02-03T05:21:36;4.65;;;3.15;;
32748;SDS011;19119;52.474;13.710;2023-02-03T05:24:01;3.72;;;2.55;;
32748;SDS011;19119;52.474;13.710;2023-02-03T05:26:30;6.22;;;3.30;;
32748;SDS011;19119;52.474;13.710;2023-02-03T05:28:56;4.90;;;2.78;;
32748;SDS011;19119;52.474;13.710;2023-02-03T05:31:22;5.80;;;3.28;;
32748;SDS011;19119;52.474;13.710;2023-02-03T05:33:47;7.93;;;3.40;;
32748;SDS011;19119;52.474;13.710;2023-02-03T05:36:13;6.80;;;3.45;;
32748;SDS011;19119;52.474;13.710;2023-02-03T05:38:38;7.45;;;3.75;;
32748;SDS011;19119;52.474;13.710;2023-02-03T05:41:05;6.68;;;3.72;;
32748;SDS011;19119;52.474;13.710;2023-02-03T05:43:51;6.85;;;3.85;;
32748;SDS011;19119;52.474;13.710;2023-02-03T05:46:16;7.10;;;3.75;;
32748;SDS011;19119;52.474;13.710;2023-02-03T05:48:42;8.02;;;4.07;;
32748;SDS011;19119;52.474;13.710;2023-02-03T05:51:07;7.90;;;4.82;;
32748;SDS011;19119;52.474;13.710;2023-02-03T05:53:33;9.77;;;4.40;;
32748;SDS011;19119;52.474;13.710;2023-02-03T05:55:58;10.00;;;4.82;;
32748;SDS011;19119;52.474;13.710;2023-02-03T05:58:24;9.40;;;4.80;;
32748;SDS011;19119;52.474;13.710;2023-02-03T06:00:50;9.27;;;5.03;;
32748;SDS011;19119;52.474;13.710;2023-02-03T06:03:16;12.27;;;5.85;;
32748;SDS011;19119;52.474;13.710;2023-02-03T06:05:41;10.57;;;5.57;;
32748;SDS011;19119;52.474;13.710;2023-02-03T06:08:08;14.18;;;5.22;;
32748;SDS011;19119;52.474;13.710;2023-02-03T06:10:33;11.38;;;5.75;;
32748;SDS011;19119;52.474;13.710;2023-02-03T06:12:59;12.23;;;6.25;;
32748;SDS011;19119;52.474;13.710;2023-02-03T06:15:32;11.68;;;5.38;;
32748;SDS011;19119;52.474;13.710;2023-02-03T06:17:58;14.65;;;7.30;;
32748;SDS011;19119;52.474;13.710;2023-02-03T06:20:23;16.42;;;6.20;;
32748;SDS011;19119;52.474;13.710;2023-02-03T06:22:49;13.77;;;6.65;;
32748;SDS011;19119;52.474;13.710;2023-02-03T06:25:14;12.90;;;6.38;;
32748;SDS011;19119;52.474;13.710;2023-02-03T06:27:40;14.32;;;7.03;;
32748;SDS011;19119;52.474;13.710;2023-02-03T06:30:06;17.30;;;6.30;;
32748;SDS011;19119;52.474;13.710;2023-02-03T06:32:32;16.70;;;6.63;;
32748;SDS011;19119;52.474;13.710;2023-02-03T06:34:57;13.02;;;6.38;;
32748;SDS011;19119;52.474;13.710;2023-02-03T06:37:23;17.13;;;7.25;;
32748;SDS011;19119;52.474;13.710;2023-02-03T06:39:48;16.10;;;7.18;;
32748;SDS011;19119;52.474;13.710;2023-02-03T06:42:14;18.23;;;7.55;;
32748;SDS011;19119;52.474;13.710;2023-02-03T06:44:39;12.80;;;6.85;;
32748;SDS011;19119;52.474;13.710;2023-02-03T06:47:05;17.20;;;7.30;;
32748;SDS011;19119;52.474;13.710;2023-02-03T06:49:30;21.45;;;7.70;;
32748;SDS011;19119;52.474;13.710;2023-02-03T06:51:56;14.95;;;7.53;;
32748;SDS011;19119;52.474;13.710;2023-02-03T06:54:21;16.77;;;7.15;;
32748;SDS011;19119;52.474;13.710;2023-02-03T06:56:47;15.32;;;7.10;;
32748;SDS011;19119;52.474;13.710;2023-02-03T06:59:12;18.80;;;8.18;;
32748;SDS011;19119;52.474;13.710;2023-02-03T07:01:38;14.38;;;7.47;;
32748;SDS011;19119;52.474;13.710;2023-02-03T07:04:04;19.15;;;8.57;;
32748;SDS011;19119;52.474;13.710;2023-02-03T07:06:30;19.67;;;8.50;;
32748;SDS011;19119;52.474;13.710;2023-02-03T07:09:02;16.50;;;8.20;;
32748;SDS011;19119;52.474;13.710;2023-02-03T07:11:28;16.83;;;7.28;;
32748;SDS011;19119;52.474;13.710;2023-02-03T07:13:54;17.38;;;8.43;;
32748;SDS011;19119;52.474;13.710;2023-02-03T07:16:19;17.85;;;7.20;;
32748;SDS011;19119;52.474;13.710;2023-02-03T07:18:45;16.40;;;7.38;;
32748;SDS011;19119;52.474;13.710;2023-02-03T07:21:11;22.25;;;8.52;;
32748;SDS011;19119;52.474;13.710;2023-02-03T07:23:37;17.80;;;8.65;;
32748;SDS011;19119;52.474;13.710;2023-02-03T07:26:03;17.67;;;7.88;;
32748;SDS011;19119;52.474;13.710;2023-02-03T07:28:31;16.00;;;7.70;;
32748;SDS011;19119;52.474;13.710;2023-02-03T07:30:57;18.00;;;8.10;;
32748;SDS011;19119;52.474;13.710;2023-02-03T07:33:23;19.92;;;7.93;;
32748;SDS011;19119;52.474;13.710;2023-02-03T07:35:55;16.40;;;7.38;;
32748;SDS011;19119;52.474;13.710;2023-02-03T07:38:23;15.63;;;7.47;;
32748;SDS011;19119;52.474;13.710;2023-02-03T07:40:49;16.42;;;7.93;;
32748;SDS011;19119;52.474;13.710;2023-02-03T07:43:15;13.18;;;7.25;;
32748;SDS011;19119;52.474;13.710;2023-02-03T07:45:40;19.17;;;8.10;;
32748;SDS011;19119;52.474;13.710;2023-02-03T07:48:06;18.10;;;7.82;;
32748;SDS011;19119;52.474;13.710;2023-02-03T07:50:32;17.05;;;7.80;;
32748;SDS011;19119;52.474;13.710;2023-02-03T07:52:58;15.75;;;5.90;;
32748;SDS011;19119;52.474;13.710;2023-02-03T07:55:24;11.15;;;6.38;;
32748;SDS011;19119;52.474;13.710;2023-02-03T07:57:50;13.48;;;7.22;;
32748;SDS011;19119;52.474;13.710;2023-02-03T08:00:18;12.18;;;6.15;;
32748;SDS011;19119;52.474;13.710;2023-02-03T08:02:44;12.02;;;6.35;;
32748;SDS011;19119;52.474;13.710;2023-02-03T08:05:10;12.65;;;6.55;;
32748;SDS011;19119;52.474;13.710;2023-02-03T08:07:36;11.45;;;5.60;;
32748;SDS011;19119;52.474;13.710;2023-02-03T08:10:02;11.90;;;6.60;;
32748;SDS011;19119;52.474;13.710;2023-02-03T08:12:28;13.90;;;5.82;;
32748;SDS011;19119;52.474;13.710;2023-02-03T08:14:54;13.80;;;7.05;;
32748;SDS011;19119;52.474;13.710;2023-02-03T08:17:20;10.75;;;5.80;;
32748;SDS011;19119;52.474;13.710;2023-02-03T08:19:46;9.43;;;5.85;;
32748;SDS011;19119;52.474;13.710;2023-02-03T08:22:11;13.70;;;5.88;;
32748;SDS011;19119;52.474;13.710;2023-02-03T08:24:40;11.30;;;6.43;;
32748;SDS011;19119;52.474;13.710;2023-02-03T08:27:10;10.25;;;5.85;;
32748;SDS011;19119;52.474;13.710;2023-02-03T08:29:36;7.50;;;4.60;;
32748;SDS011;19119;52.474;13.710;2023-02-03T08:32:02;9.60;;;5.38;;
32748;SDS011;19119;52.474;13.710;2023-02-03T08:34:28;8.73;;;5.15;;
32748;SDS011;19119;52.474;13.710;2023-02-03T08:36:54;12.52;;;5.38;;
32748;SDS011;19119;52.474;13.710;2023-02-03T08:39:19;9.10;;;5.45;;
32748;SDS011;19119;52.474;13.710;2023-02-03T08:41:45;9.27;;;4.88;;
32748;SDS011;19119;52.474;13.710;2023-02-03T08:44:10;11.05;;;4.70;;
32748;SDS011;19119;52.474;13.710;2023-02-03T08:46:36;9.27;;;4.70;;
32748;SDS011;19119;52.474;13.710;2023-02-03T08:49:07;7.88;;;4.13;;
32748;SDS011;19119;52.474;13.710;2023-02-03T08:51:33;7.57;;;4.13;;
32748;SDS011;19119;52.474;13.710;2023-02-03T08:53:58;7.82;;;4.97;;
32748;SDS011;19119;52.474;13.710;2023-02-03T08:56:24;6.80;;;3.80;;
32748;SDS011;19119;52.474;13.710;2023-02-03T08:58:50;8.18;;;4.30;;
32748;SDS011;19119;52.474;13.710;2023-02-03T09:01:16;7.20;;;3.20;;
32748;SDS011;19119;52.474;13.710;2023-02-03T09:03:41;9.25;;;3.78;;
32748;SDS011;19119;52.474;13.710;2023-02-03T09:06:07;5.18;;;3.05;;
32748;SDS011;19119;52.474;13.710;2023-02-03T09:08:35;6.80;;;3.53;;
32748;SDS011;19119;52.474;13.710;2023-02-03T09:11:01;6.50;;;3.42;;
32748;SDS011;19119;52.474;13.710;2023-02-03T09:13:32;4.07;;;2.88;;
32748;SDS011;19119;52.474;13.710;2023-02-03T09:15:58;6.35;;;3.60;;
32748;SDS011;19119;52.474;13.710;2023-02-03T09:18:25;4.47;;;2.80;;
32748;SDS011;19119;52.474;13.710;2023-02-03T09:20:50;5.60;;;3.17;;
32748;SDS011;19119;52.474;13.710;2023-02-03T09:23:16;5.22;;;3.05;;
32748;SDS011;19119;52.474;13.710;2023-02-03T09:25:41;6.32;;;3.00;;
32748;SDS011;19119;52.474;13.710;2023-02-03T09:28:07;4.88;;;2.92;;
32748;SDS011;19119;52.474;13.710;2023-02-03T09:30:32;4.53;;;2.85;;
32748;SDS011;19119;52.474;13.710;2023-02-03T09:32:58;4.25;;;2.90;;
32748;SDS011;19119;52.474;13.710;2023-02-03T09:35:23;4.22;;;2.97;;
32748;SDS011;19119;52.474;13.710;2023-02-03T09:37:50;6.05;;;2.67;;
32748;SDS011;19119;52.474;13.710;2023-02-03T09:40:20;6.93;;;2.92;;
32748;SDS011;19119;52.474;13.710;2023-02-03T09:45:27;4.78;;;2.58;;
32748;SDS011;19119;52.474;13.710;2023-02-03T09:47:56;4.95;;;2.63;;
32748;SDS011;19119;52.474;13.710;2023-02-03T09:50:29;3.80;;;2.35;;
32748;SDS011;19119;52.474;13.710;2023-02-03T09:52:57;4.40;;;2.33;;
32748;SDS011;19119;52.474;13.710;2023-02-03T09:55:41;3.50;;;2.33;;
32748;SDS011;19119;52.474;13.710;2023-02-03T09:58:17;3.63;;;2.15;;
32748;SDS011;19119;52.474;13.710;2023-02-03T10:00:50;4.03;;;2.33;;
32748;SDS011;19119;52.474;13.710;2023-02-03T10:03:22;4.70;;;2.58;;
32748;SDS011;19119;52.474;13.710;2023-02-03T10:06:09;3.35;;;2.03;;
32748;SDS011;19119;52.474;13.710;2023-02-03T10:11:29;3.72;;;1.92;;
32748;SDS011;19119;52.474;13.710;2023-02-03T10:24:46;3.88;;;2.38;;
32748;SDS011;19119;52.474;13.710;2023-02-03T10:27:19;5.80;;;2.13;;
32748;SDS011;19119;52.474;13.710;2023-02-03T10:30:21;2.72;;;1.85;;
32748;SDS011;19119;52.474;13.710;2023-02-03T10:32:53;2.67;;;1.77;;
32748;SDS011;19119;52.474;13.710;2023-02-03T10:35:27;5.25;;;2.10;;
32748;SDS011;19119;52.474;13.710;2023-02-03T10:38:00;3.72;;;1.77;;
32748;SDS011;19119;52.474;13.710;2023-02-03T10:40:27;2.90;;;1.60;;
32748;SDS011;19119;52.474;13.710;2023-02-03T10:42:53;3.22;;;1.73;;
32748;SDS011;19119;52.474;13.710;2023-02-03T10:45:38;1.70;;;1.27;;
32748;SDS011;19119;52.474;13.710;2023-02-03T10:48:05;2.50;;;1.27;;
32748;SDS011;19119;52.474;13.710;2023-02-03T10:50:35;3.55;;;1.20;;
32748;SDS011;19119;52.474;13.710;2023-02-03T10:53:19;1.95;;;0.90;;
32748;SDS011;19119;52.474;13.710;2023-02-03T10:56:30;1.90;;;0.82;;
32748;SDS011;19119;52.474;13.710;2023-02-03T10:58:45;6.50;;;1.67;;
32748;SDS011;19119;52.474;13.710;2023-02-03T11:01:14;5.90;;;0.88;;
32748;SDS011;19119;52.474;13.710;2023-02-03T11:03:52;4.03;;;1.55;;
32748;SDS011;19119;52.474;13.710;2023-02-03T11:06:20;2.47;;;1.05;;
32748;SDS011;19119;52.474;13.710;2023-02-03T11:08:46;6.13;;;1.20;;
32748;SDS011;19119;52.474;13.710;2023-02-03T11:11:29;9.57;;;1.33;;
32748;SDS011;19119;52.474;13.710;2023-02-03T11:16:26;7.70;;;1.45;;
32748;SDS011;19119;52.474;13.710;2023-02-03T11:18:53;3.22;;;1.20;;
32748;SDS011;19119;52.474;13.710;2023-02-03T11:24:02;12.90;;;1.90;;
32748;SDS011;19119;52.474;13.710;2023-02-03T11:29:32;4.80;;;1.13;;
32748;SDS011;19119;52.474;13.710;2023-02-03T11:32:00;4.63;;;1.35;;
32748;SDS011;19119;52.474;13.710;2023-02-03T11:34:35;5.17;;;1.37;;
32748;SDS011;19119;52.474;13.710;2023-02-03T11:42:42;3.90;;;1.50;;
32748;SDS011;19119;52.474;13.710;2023-02-03T11:47:42;7.47;;;1.40;;
32748;SDS011;19119;52.474;13.710;2023-02-03T11:50:18;3.35;;;1.33;;
32748;SDS011;19119;52.474;13.710;2023-02-03T11:55:39;5.07;;;1.35;;
32748;SDS011;19119;52.474;13.710;2023-02-03T11:58:15;3.90;;;1.30;;
32748;SDS011;19119;52.474;13.710;2023-02-03T12:03:47;6.72;;;1.73;;
32748;SDS011;19119;52.474;13.710;2023-02-03T12:06:23;8.18;;;1.85;;
32748;SDS011;19119;52.474;13.710;2023-02-03T12:12:04;6.43;;;1.65;;
32748;SDS011;19119;52.474;13.710;2023-02-03T12:15:06;4.95;;;1.20;;
32748;SDS011;19119;52.474;13.710;2023-02-03T12:18:38;10.15;;;1.67;;
32748;SDS011;19119;52.474;13.710;2023-02-03T12:23:46;6.80;;;2.28;;
32748;SDS011;19119;52.474;13.710;2023-02-03T12:26:23;8.52;;;3.05;;
32748;SDS011;19119;52.474;13.710;2023-02-03T12:31:43;12.15;;;4.63;;
32748;SDS011;19119;52.474;13.710;2023-02-03T12:37:02;7.18;;;1.65;;
32748;SDS011;19119;52.474;13.710;2023-02-03T12:39:45;11.10;;;2.58;;
32748;SDS011;19119;52.474;13.710;2023-02-03T12:42:24;7.38;;;2.72;;
32748;SDS011;19119;52.474;13.710;2023-02-03T12:44:56;10.52;;;2.30;;
32748;SDS011;19119;52.474;13.710;2023-02-03T12:50:24;16.85;;;1.95;;
32748;SDS011;19119;52.474;13.710;2023-02-03T12:56:01;13.35;;;2.25;;
32748;SDS011;19119;52.474;13.710;2023-02-03T12:58:35;22.80;;;2.40;;
32748;SDS011;19119;52.474;13.710;2023-02-03T13:01:18;8.63;;;1.40;;
32748;SDS011;19119;52.474;13.710;2023-02-03T13:04:00;1.80;;;0.80;;
32748;SDS011;19119;52.474;13.710;2023-02-03T13:09:30;6.63;;;1.38;;
32748;SDS011;19119;52.474;13.710;2023-02-03T13:12:12;5.25;;;1.98;;
32748;SDS011;19119;52.474;13.710;2023-02-03T13:17:47;1.85;;;1.00;;
32748;SDS011;19119;52.474;13.710;2023-02-03T13:20:32;1.40;;;0.90;;
32748;SDS011;19119;52.474;13.710;2023-02-03T13:23:00;2.63;;;1.10;;
32748;SDS011;19119;52.474;13.710;2023-02-03T13:25:37;11.70;;;1.00;;
32748;SDS011;19119;52.474;13.710;2023-02-03T13:31:21;5.57;;;1.40;;
32748;SDS011;19119;52.474;13.710;2023-02-03T13:44:56;6.40;;;1.63;;
32748;SDS011;19119;52.474;13.710;2023-02-03T13:47:29;5.57;;;2.72;;
32748;SDS011;19119;52.474;13.710;2023-02-03T13:50:06;9.93;;;1.45;;
32748;SDS011;19119;52.474;13.710;2023-02-03T13:52:46;4.88;;;1.13;;
32748;SDS011;19119;52.474;13.710;2023-02-03T13:55:41;8.07;;;1.85;;
32748;SDS011;19119;52.474;13.710;2023-02-03T13:58:17;6.63;;;2.35;;
32748;SDS011;19119;52.474;13.710;2023-02-03T14:05:49;4.22;;;1.70;;
32748;SDS011;19119;52.474;13.710;2023-02-03T14:22:15;10.98;;;2.60;;
32748;SDS011;19119;52.474;13.710;2023-02-03T14:24:43;13.50;;;1.75;;
32748;SDS011;19119;52.474;13.710;2023-02-03T14:27:18;11.05;;;2.78;;
32748;SDS011;19119;52.474;13.710;2023-02-03T14:32:50;11.35;;;2.30;;
32748;SDS011;19119;52.474;13.710;2023-02-03T14:35:20;10.00;;;2.17;;
32748;SDS011;19119;52.474;13.710;2023-02-03T14:37:52;6.22;;;1.85;;
32748;SDS011;19119;52.474;13.710;2023-02-03T14:40:34;12.65;;;2.30;;
32748;SDS011;19119;52.474;13.710;2023-02-03T14:43:34;10.85;;;2.10;;
32748;SDS011;19119;52.474;13.710;2023-02-03T14:49:06;7.50;;;2.03;;
32748;SDS011;19119;52.474;13.710;2023-02-03T14:57:34;9.00;;;1.92;;
32748;SDS011;19119;52.474;13.710;2023-02-03T15:05:38;14.18;;;1.95;;
32748;SDS011;19119;52.474;13.710;2023-02-03T15:11:14;11.52;;;2.67;;
32748;SDS011;19119;52.474;13.710;2023-02-03T15:13:45;13.52;;;3.03;;
32748;SDS011;19119;52.474;13.710;2023-02-03T15:16:15;13.27;;;2.92;;
32748;SDS011;19119;52.474;13.710;2023-02-03T15:18:51;16.38;;;1.95;;
32748;SDS011;19119;52.474;13.710;2023-02-03T15:21:19;8.88;;;2.28;;
32748;SDS011;19119;52.474;13.710;2023-02-03T15:23:45;10.25;;;2.78;;
32748;SDS011;19119;52.474;13.710;2023-02-03T15:28:45;21.92;;;3.75;;
32748;SDS011;19119;52.474;13.710;2023-02-03T15:31:19;13.00;;;2.95;;
32748;SDS011;19119;52.474;13.710;2023-02-03T15:33:48;13.93;;;2.25;;
32748;SDS011;19119;52.474;13.710;2023-02-03T15:36:16;16.52;;;2.67;;
32748;SDS011;19119;52.474;13.710;2023-02-03T15:38:45;17.70;;;3.83;;
32748;SDS011;19119;52.474;13.710;2023-02-03T15:41:17;12.45;;;2.28;;
32748;SDS011;19119;52.474;13.710;2023-02-03T15:43:46;17.27;;;2.42;;
32748;SDS011;19119;52.474;13.710;2023-02-03T15:46:17;12.13;;;2.85;;
32748;SDS011;19119;52.474;13.710;2023-02-03T15:51:52;9.43;;;2.33;;
32748;SDS011;19119;52.474;13.710;2023-02-03T15:56:41;9.00;;;2.78;;
32748;SDS011;19119;52.474;13.710;2023-02-03T16:01:53;11.50;;;3.03;;
32748;SDS011;19119;52.474;13.710;2023-02-03T16:04:19;6.22;;;2.00;;
32748;SDS011;19119;52.474;13.710;2023-02-03T16:06:46;12.63;;;2.20;;
32748;SDS011;19119;52.474;13.710;2023-02-03T16:09:25;8.38;;;1.83;;
32748;SDS011;19119;52.474;13.710;2023-02-03T16:12:00;16.30;;;2.00;;
32748;SDS011;19119;52.474;13.710;2023-02-03T16:14:32;5.65;;;1.80;;
32748;SDS011;19119;52.474;13.710;2023-02-03T16:16:58;9.13;;;1.65;;
32748;SDS011;19119;52.474;13.710;2023-02-03T16:19:24;5.97;;;1.92;;
32748;SDS011;19119;52.474;13.710;2023-02-03T16:21:53;7.68;;;2.30;;
32748;SDS011;19119;52.474;13.710;2023-02-03T16:29:42;9.15;;;2.10;;
32748;SDS011;19119;52.474;13.710;2023-02-03T16:32:27;10.90;;;2.85;;
32748;SDS011;19119;52.474;13.710;2023-02-03T16:35:11;12.02;;;2.55;;
32748;SDS011;19119;52.474;13.710;2023-02-03T16:38:03;22.75;;;3.80;;
32748;SDS011;19119;52.474;13.710;2023-02-03T16:40:48;17.90;;;3.38;;
32748;SDS011;19119;52.474;13.710;2023-02-03T16:43:33;13.02;;;2.05;;
32748;SDS011;19119;52.474;13.710;2023-02-03T16:46:17;13.00;;;2.25;;
32748;SDS011;19119;52.474;13.710;2023-02-03T16:49:02;14.50;;;2.80;;
32748;SDS011;19119;52.474;13.710;2023-02-03T16:51:46;12.52;;;3.20;;
32748;SDS011;19119;52.474;13.710;2023-02-03T16:54:13;14.35;;;3.08;;
32748;SDS011;19119;52.474;13.710;2023-02-03T16:56:42;10.98;;;2.22;;
32748;SDS011;19119;52.474;13.710;2023-02-03T16:59:08;14.75;;;2.85;;
32748;SDS011;19119;52.474;13.710;2023-02-03T17:01:34;7.55;;;1.80;;
32748;SDS011;19119;52.474;13.710;2023-02-03T17:04:00;11.60;;;2.67;;
32748;SDS011;19119;52.474;13.710;2023-02-03T17:06:26;8.88;;;2.60;;
32748;SDS011;19119;52.474;13.710;2023-02-03T17:08:52;10.90;;;1.70;;
32748;SDS011;19119;52.474;13.710;2023-02-03T17:11:19;15.23;;;4.38;;
32748;SDS011;19119;52.474;13.710;2023-02-03T17:13:46;10.35;;;2.42;;